Terminal Aerodrome Forecast
Issued by NWS

Home | Current Version | Previous Version | Text Only | Print | Product List | Glossary On
Versions: 1 2 3 4 5 6 7 8 9 10 11 12 13 14 15 16
284
FTUS41 KAKQ 141741
TAFPHF
TAF
KPHF 141741Z 1418/1518 36007KT P6SM FEW250
     FM142100 VRB05KT P6SM SCT100 BKN150
     FM150300 11003KT P6SM FEW030 OVC060
     FM150700 08008KT 3SM -SN BKN008 OVC020
     FM150900 09005KT 1 1/2SM -SN BR OVC008
     FM151600 07008KT 2SM -FZRA BR OVC005=

USA.gov is the U.S. government's official web portal to all federal, state and local government web resources and services.